sensor_id;sensor_type;location;lat;lon;timestamp;temperature;humidity
20045;DHT22;10183;47.808;9.476;2022-09-30T00:01:46;6.90;99.90
20045;DHT22;10183;47.808;9.476;2022-09-30T00:04:23;7.00;99.90
20045;DHT22;10183;47.808;9.476;2022-09-30T00:06:51;7.10;99.90
20045;DHT22;10183;47.808;9.476;2022-09-30T00:09:18;7.10;99.90
20045;DHT22;10183;47.808;9.476;2022-09-30T00:11:44;7.20;99.90
20045;DHT22;10183;47.808;9.476;2022-09-30T00:14:15;7.20;99.90
20045;DHT22;10183;47.808;9.476;2022-09-30T00:16:42;7.30;99.90
20045;DHT22;10183;47.808;9.476;2022-09-30T00:19:09;7.30;99.90
20045;DHT22;10183;47.808;9.476;2022-09-30T00:21:35;7.40;99.90
20045;DHT22;10183;47.808;9.476;2022-09-30T00:24:02;7.30;99.90
20045;DHT22;10183;47.808;9.476;2022-09-30T00:26:29;7.30;99.90
20045;DHT22;10183;47.808;9.476;2022-09-30T00:28:57;7.40;99.90
20045;DHT22;10183;47.808;9.476;2022-09-30T00:31:27;7.40;99.90
20045;DHT22;10183;47.808;9.476;2022-09-30T00:33:54;7.40;99.90
20045;DHT22;10183;47.808;9.476;2022-09-30T00:38:59;7.50;99.90
20045;DHT22;10183;47.808;9.476;2022-09-30T00:41:25;7.50;99.90
20045;DHT22;10183;47.808;9.476;2022-09-30T00:43:52;7.50;99.90
20045;DHT22;10183;47.808;9.476;2022-09-30T00:49:00;7.60;99.90
20045;DHT22;10183;47.808;9.476;2022-09-30T00:51:32;7.60;99.90
20045;DHT22;10183;47.808;9.476;2022-09-30T00:54:03;7.60;99.90
20045;DHT22;10183;47.808;9.476;2022-09-30T00:56:33;7.50;99.90
20045;DHT22;10183;47.808;9.476;2022-09-30T00:59:09;7.50;99.90
20045;DHT22;10183;47.808;9.476;2022-09-30T01:01:40;7.50;99.90
20045;DHT22;10183;47.808;9.476;2022-09-30T01:04:14;7.50;99.90
20045;DHT22;10183;47.808;9.476;2022-09-30T01:06:42;7.50;99.90
20045;DHT22;10183;47.808;9.476;2022-09-30T01:09:09;7.40;99.90
20045;DHT22;10183;47.808;9.476;2022-09-30T01:11:35;7.40;99.90
20045;DHT22;10183;47.808;9.476;2022-09-30T01:14:05;7.50;99.90
20045;DHT22;10183;47.808;9.476;2022-09-30T01:27:46;7.60;99.90
20045;DHT22;10183;47.808;9.476;2022-09-30T01:33:21;7.50;99.90
20045;DHT22;10183;47.808;9.476;2022-09-30T01:41:54;7.50;99.90
20045;DHT22;10183;47.808;9.476;2022-09-30T01:47:36;7.50;99.90
20045;DHT22;10183;47.808;9.476;2022-09-30T01:53:03;7.10;99.90
20045;DHT22;10183;47.808;9.476;2022-09-30T01:55:44;6.90;99.90
20045;DHT22;10183;47.808;9.476;2022-09-30T02:01:09;6.80;99.90
20045;DHT22;10183;47.808;9.476;2022-09-30T02:03:41;6.90;99.90
20045;DHT22;10183;47.808;9.476;2022-09-30T02:06:14;6.80;99.90
20045;DHT22;10183;47.808;9.476;2022-09-30T02:09:13;6.90;99.90
20045;DHT22;10183;47.808;9.476;2022-09-30T02:11:41;6.90;99.90
20045;DHT22;10183;47.808;9.476;2022-09-30T02:14:14;7.00;99.90
20045;DHT22;10183;47.808;9.476;2022-09-30T02:16:46;7.10;99.90
20045;DHT22;10183;47.808;9.476;2022-09-30T02:19:25;7.10;99.90
20045;DHT22;10183;47.808;9.476;2022-09-30T02:21:59;7.00;99.90
20045;DHT22;10183;47.808;9.476;2022-09-30T02:24:30;7.00;99.90
20045;DHT22;10183;47.808;9.476;2022-09-30T02:27:04;7.00;99.90
20045;DHT22;10183;47.808;9.476;2022-09-30T02:29:39;7.10;99.90
20045;DHT22;10183;47.808;9.476;2022-09-30T02:32:30;7.10;99.90
20045;DHT22;10183;47.808;9.476;2022-09-30T02:35:00;6.90;99.90
20045;DHT22;10183;47.808;9.476;2022-09-30T02:37:36;6.80;99.90
20045;DHT22;10183;47.808;9.476;2022-09-30T02:40:23;6.80;99.90
20045;DHT22;10183;47.808;9.476;2022-09-30T02:42:51;6.90;99.90
20045;DHT22;10183;47.808;9.476;2022-09-30T02:45:21;7.00;99.90
20045;DHT22;10183;47.808;9.476;2022-09-30T02:48:05;7.10;99.90
20045;DHT22;10183;47.808;9.476;2022-09-30T02:50:47;7.10;99.90
20045;DHT22;10183;47.808;9.476;2022-09-30T02:53:36;7.20;99.90
20045;DHT22;10183;47.808;9.476;2022-09-30T02:58:36;7.20;99.90
20045;DHT22;10183;47.808;9.476;2022-09-30T03:01:11;7.20;99.90
20045;DHT22;10183;47.808;9.476;2022-09-30T03:03:49;7.20;99.90
20045;DHT22;10183;47.808;9.476;2022-09-30T03:06:17;7.30;99.90
20045;DHT22;10183;47.808;9.476;2022-09-30T03:08:45;7.30;99.90
20045;DHT22;10183;47.808;9.476;2022-09-30T03:11:17;7.30;99.90
20045;DHT22;10183;47.808;9.476;2022-09-30T03:28:03;7.10;99.90
20045;DHT22;10183;47.808;9.476;2022-09-30T03:30:34;7.10;99.90
20045;DHT22;10183;47.808;9.476;2022-09-30T03:33:09;7.10;99.90
20045;DHT22;10183;47.808;9.476;2022-09-30T03:41:05;6.90;99.90
20045;DHT22;10183;47.808;9.476;2022-09-30T03:48:44;6.90;99.90
20045;DHT22;10183;47.808;9.476;2022-09-30T03:51:13;7.00;99.90
20045;DHT22;10183;47.808;9.476;2022-09-30T03:53:40;6.90;99.90
20045;DHT22;10183;47.808;9.476;2022-09-30T03:56:07;6.90;99.90
20045;DHT22;10183;47.808;9.476;2022-09-30T03:58:33;7.00;99.90
20045;DHT22;10183;47.808;9.476;2022-09-30T04:00:59;7.00;99.90
20045;DHT22;10183;47.808;9.476;2022-09-30T04:03:26;7.00;99.90
20045;DHT22;10183;47.808;9.476;2022-09-30T04:05:53;7.10;99.90
20045;DHT22;10183;47.808;9.476;2022-09-30T04:08:20;7.10;99.90
20045;DHT22;10183;47.808;9.476;2022-09-30T04:10:47;7.10;99.90
20045;DHT22;10183;47.808;9.476;2022-09-30T04:13:13;7.10;99.90
20045;DHT22;10183;47.808;9.476;2022-09-30T04:15:39;7.10;99.90
20045;DHT22;10183;47.808;9.476;2022-09-30T04:18:06;7.10;99.90
20045;DHT22;10183;47.808;9.476;2022-09-30T04:20:32;7.20;99.90
20045;DHT22;10183;47.808;9.476;2022-09-30T04:22:59;7.20;99.90
20045;DHT22;10183;47.808;9.476;2022-09-30T04:25:27;7.20;99.90
20045;DHT22;10183;47.808;9.476;2022-09-30T04:27:53;7.30;99.90
20045;DHT22;10183;47.808;9.476;2022-09-30T04:30:20;7.30;99.90
20045;DHT22;10183;47.808;9.476;2022-09-30T04:32:46;7.30;99.90
20045;DHT22;10183;47.808;9.476;2022-09-30T04:35:13;7.20;99.90
20045;DHT22;10183;47.808;9.476;2022-09-30T04:37:46;7.30;99.90
20045;DHT22;10183;47.808;9.476;2022-09-30T04:40:13;7.30;99.90
20045;DHT22;10183;47.808;9.476;2022-09-30T04:42:41;7.10;99.90
20045;DHT22;10183;47.808;9.476;2022-09-30T04:45:09;7.20;99.90
20045;DHT22;10183;47.808;9.476;2022-09-30T04:47:35;7.20;99.90
20045;DHT22;10183;47.808;9.476;2022-09-30T04:50:02;7.20;99.90
20045;DHT22;10183;47.808;9.476;2022-09-30T04:52:28;7.30;99.90
20045;DHT22;10183;47.808;9.476;2022-09-30T04:54:54;7.40;99.90
20045;DHT22;10183;47.808;9.476;2022-09-30T04:57:20;7.20;99.90
20045;DHT22;10183;47.808;9.476;2022-09-30T04:59:46;7.10;99.90
20045;DHT22;10183;47.808;9.476;2022-09-30T05:02:13;7.00;99.90
20045;DHT22;10183;47.808;9.476;2022-09-30T05:04:39;7.00;99.90
20045;DHT22;10183;47.808;9.476;2022-09-30T05:07:05;7.10;99.90
20045;DHT22;10183;47.808;9.476;2022-09-30T05:09:34;7.10;99.90
20045;DHT22;10183;47.808;9.476;2022-09-30T05:12:01;7.10;99.90
20045;DHT22;10183;47.808;9.476;2022-09-30T05:14:28;7.10;99.90
20045;DHT22;10183;47.808;9.476;2022-09-30T05:16:55;7.20;99.90
20045;DHT22;10183;47.808;9.476;2022-09-30T05:19:21;7.10;99.90
20045;DHT22;10183;47.808;9.476;2022-09-30T05:21:47;7.20;99.90
20045;DHT22;10183;47.808;9.476;2022-09-30T05:24:13;7.20;99.90
20045;DHT22;10183;47.808;9.476;2022-09-30T05:26:39;7.20;99.90
20045;DHT22;10183;47.808;9.476;2022-09-30T05:29:08;7.20;99.90
20045;DHT22;10183;47.808;9.476;2022-09-30T05:31:34;7.20;99.90
20045;DHT22;10183;47.808;9.476;2022-09-30T05:34:00;7.20;99.90
20045;DHT22;10183;47.808;9.476;2022-09-30T05:36:26;7.20;99.90
20045;DHT22;10183;47.808;9.476;2022-09-30T05:38:53;7.20;99.90
20045;DHT22;10183;47.808;9.476;2022-09-30T05:41:20;7.20;99.90
20045;DHT22;10183;47.808;9.476;2022-09-30T05:43:47;7.20;99.90
20045;DHT22;10183;47.808;9.476;2022-09-30T05:46:17;7.20;99.90
20045;DHT22;10183;47.808;9.476;2022-09-30T05:48:44;7.30;99.90
20045;DHT22;10183;47.808;9.476;2022-09-30T05:51:10;7.40;99.90
20045;DHT22;10183;47.808;9.476;2022-09-30T05:53:38;7.40;99.90
20045;DHT22;10183;47.808;9.476;2022-09-30T05:56:08;7.50;99.90
20045;DHT22;10183;47.808;9.476;2022-09-30T05:58:35;7.50;99.90
20045;DHT22;10183;47.808;9.476;2022-09-30T06:01:04;7.50;99.90
20045;DHT22;10183;47.808;9.476;2022-09-30T06:03:32;7.60;99.90
20045;DHT22;10183;47.808;9.476;2022-09-30T06:05:58;7.60;99.90
20045;DHT22;10183;47.808;9.476;2022-09-30T06:08:24;7.70;99.90
20045;DHT22;10183;47.808;9.476;2022-09-30T06:10:51;7.70;99.90
20045;DHT22;10183;47.808;9.476;2022-09-30T06:13:17;7.70;99.90
20045;DHT22;10183;47.808;9.476;2022-09-30T06:15:59;7.80;99.90
20045;DHT22;10183;47.808;9.476;2022-09-30T06:18:27;7.80;99.90
20045;DHT22;10183;47.808;9.476;2022-09-30T06:20:57;7.90;99.90
20045;DHT22;10183;47.808;9.476;2022-09-30T06:23:24;7.90;99.90
20045;DHT22;10183;47.808;9.476;2022-09-30T06:25:52;8.00;99.90
20045;DHT22;10183;47.808;9.476;2022-09-30T06:28:18;8.00;99.90
20045;DHT22;10183;47.808;9.476;2022-09-30T06:30:45;7.80;99.90
20045;DHT22;10183;47.808;9.476;2022-09-30T06:33:12;7.70;99.90
20045;DHT22;10183;47.808;9.476;2022-09-30T06:35:39;7.90;99.90
20045;DHT22;10183;47.808;9.476;2022-09-30T06:38:10;8.00;99.90
20045;DHT22;10183;47.808;9.476;2022-09-30T06:40:37;8.10;99.90
20045;DHT22;10183;47.808;9.476;2022-09-30T06:43:04;8.10;99.90
20045;DHT22;10183;47.808;9.476;2022-09-30T06:45:30;8.10;99.90
20045;DHT22;10183;47.808;9.476;2022-09-30T06:47:59;8.20;99.90
20045;DHT22;10183;47.808;9.476;2022-09-30T06:50:25;8.20;99.90
20045;DHT22;10183;47.808;9.476;2022-09-30T06:52:56;8.20;99.90
20045;DHT22;10183;47.808;9.476;2022-09-30T06:55:23;8.30;99.90
20045;DHT22;10183;47.808;9.476;2022-09-30T06:57:49;8.30;99.90
20045;DHT22;10183;47.808;9.476;2022-09-30T07:00:16;8.40;99.90
20045;DHT22;10183;47.808;9.476;2022-09-30T07:02:42;8.50;99.90
20045;DHT22;10183;47.808;9.476;2022-09-30T07:05:08;8.50;99.90
20045;DHT22;10183;47.808;9.476;2022-09-30T07:07:35;8.60;99.90
20045;DHT22;10183;47.808;9.476;2022-09-30T07:10:03;8.70;99.90
20045;DHT22;10183;47.808;9.476;2022-09-30T07:12:29;8.70;99.90
20045;DHT22;10183;47.808;9.476;2022-09-30T07:14:55;8.80;99.90
20045;DHT22;10183;47.808;9.476;2022-09-30T07:17:22;8.90;99.90
20045;DHT22;10183;47.808;9.476;2022-09-30T07:19:48;8.90;99.90
20045;DHT22;10183;47.808;9.476;2022-09-30T07:22:17;9.00;99.90
20045;DHT22;10183;47.808;9.476;2022-09-30T07:24:56;9.20;99.90
20045;DHT22;10183;47.808;9.476;2022-09-30T07:27:25;9.20;99.90
20045;DHT22;10183;47.808;9.476;2022-09-30T07:29:52;9.20;99.90
20045;DHT22;10183;47.808;9.476;2022-09-30T07:32:19;9.20;99.90
20045;DHT22;10183;47.808;9.476;2022-09-30T07:34:46;9.30;99.90
20045;DHT22;10183;47.808;9.476;2022-09-30T07:37:14;9.20;99.90
20045;DHT22;10183;47.808;9.476;2022-09-30T07:39:42;9.20;99.90
20045;DHT22;10183;47.808;9.476;2022-09-30T07:42:10;9.20;99.90
20045;DHT22;10183;47.808;9.476;2022-09-30T07:44:38;9.30;99.90
20045;DHT22;10183;47.808;9.476;2022-09-30T07:47:10;9.30;99.90
20045;DHT22;10183;47.808;9.476;2022-09-30T07:49:37;9.40;99.90
20045;DHT22;10183;47.808;9.476;2022-09-30T07:52:04;9.40;99.90
20045;DHT22;10183;47.808;9.476;2022-09-30T07:54:32;9.50;99.90
20045;DHT22;10183;47.808;9.476;2022-09-30T07:57:00;9.50;99.90
20045;DHT22;10183;47.808;9.476;2022-09-30T07:59:29;9.40;99.90
20045;DHT22;10183;47.808;9.476;2022-09-30T08:01:56;9.40;99.90
20045;DHT22;10183;47.808;9.476;2022-09-30T08:04:24;9.40;99.90
20045;DHT22;10183;47.808;9.476;2022-09-30T08:06:57;9.50;99.90
20045;DHT22;10183;47.808;9.476;2022-09-30T08:09:26;9.50;99.90
20045;DHT22;10183;47.808;9.476;2022-09-30T08:11:53;9.50;99.90
20045;DHT22;10183;47.808;9.476;2022-09-30T08:14:22;9.60;99.90
20045;DHT22;10183;47.808;9.476;2022-09-30T08:16:48;9.60;99.90
20045;DHT22;10183;47.808;9.476;2022-09-30T08:19:17;9.70;99.90
20045;DHT22;10183;47.808;9.476;2022-09-30T08:21:44;9.60;99.90
20045;DHT22;10183;47.808;9.476;2022-09-30T08:24:10;9.60;99.90
20045;DHT22;10183;47.808;9.476;2022-09-30T08:26:37;9.70;99.90
20045;DHT22;10183;47.808;9.476;2022-09-30T08:29:03;9.70;99.90
20045;DHT22;10183;47.808;9.476;2022-09-30T08:31:31;9.80;99.90
20045;DHT22;10183;47.808;9.476;2022-09-30T08:33:58;9.80;99.90
20045;DHT22;10183;47.808;9.476;2022-09-30T08:36:26;9.80;99.90
20045;DHT22;10183;47.808;9.476;2022-09-30T08:38:53;9.70;99.90
20045;DHT22;10183;47.808;9.476;2022-09-30T08:52:42;9.90;99.90
20045;DHT22;10183;47.808;9.476;2022-09-30T08:55:18;9.90;99.90
20045;DHT22;10183;47.808;9.476;2022-09-30T08:57:45;10.00;99.90
20045;DHT22;10183;47.808;9.476;2022-09-30T09:00:13;10.00;99.90
20045;DHT22;10183;47.808;9.476;2022-09-30T09:02:53;10.10;99.90
20045;DHT22;10183;47.808;9.476;2022-09-30T09:11:18;10.40;99.90
20045;DHT22;10183;47.808;9.476;2022-09-30T09:13:49;10.50;99.90
20045;DHT22;10183;47.808;9.476;2022-09-30T09:19:07;10.60;99.90
20045;DHT22;10183;47.808;9.476;2022-09-30T09:21:56;10.60;99.90
20045;DHT22;10183;47.808;9.476;2022-09-30T09:24:23;10.70;99.90
20045;DHT22;10183;47.808;9.476;2022-09-30T09:26:52;10.60;99.90
20045;DHT22;10183;47.808;9.476;2022-09-30T09:29:39;10.70;99.90
20045;DHT22;10183;47.808;9.476;2022-09-30T09:32:16;10.90;99.90
20045;DHT22;10183;47.808;9.476;2022-09-30T09:34:43;10.80;99.90
20045;DHT22;10183;47.808;9.476;2022-09-30T09:42:50;10.90;99.90
20045;DHT22;10183;47.808;9.476;2022-09-30T09:48:32;10.90;99.90
20045;DHT22;10183;47.808;9.476;2022-09-30T09:53:43;10.90;99.90
20045;DHT22;10183;47.808;9.476;2022-09-30T09:56:14;11.00;99.90
20045;DHT22;10183;47.808;9.476;2022-09-30T09:59:12;11.00;99.90
20045;DHT22;10183;47.808;9.476;2022-09-30T10:01:44;11.00;99.90
20045;DHT22;10183;47.808;9.476;2022-09-30T10:04:18;11.00;99.90
20045;DHT22;10183;47.808;9.476;2022-09-30T10:09:36;11.10;99.90
20045;DHT22;10183;47.808;9.476;2022-09-30T10:14:39;11.30;99.90
20045;DHT22;10183;47.808;9.476;2022-09-30T10:17:19;11.30;99.90
20045;DHT22;10183;47.808;9.476;2022-09-30T10:19:51;11.30;99.90
20045;DHT22;10183;47.808;9.476;2022-09-30T10:22:24;11.40;99.90
20045;DHT22;10183;47.808;9.476;2022-09-30T10:28:25;11.50;99.90
20045;DHT22;10183;47.808;9.476;2022-09-30T10:33:34;12.00;99.90
20045;DHT22;10183;47.808;9.476;2022-09-30T10:36:13;12.00;99.90
20045;DHT22;10183;47.808;9.476;2022-09-30T10:39:02;12.10;99.90
20045;DHT22;10183;47.808;9.476;2022-09-30T10:41:32;12.30;99.90
20045;DHT22;10183;47.808;9.476;2022-09-30T10:44:02;12.70;99.90
20045;DHT22;10183;47.808;9.476;2022-09-30T10:46:32;12.90;99.90
20045;DHT22;10183;47.808;9.476;2022-09-30T10:49:07;12.90;99.90
20045;DHT22;10183;47.808;9.476;2022-09-30T10:51:34;12.90;99.90
20045;DHT22;10183;47.808;9.476;2022-09-30T10:54:03;12.80;99.90
20045;DHT22;10183;47.808;9.476;2022-09-30T10:56:37;12.60;99.90
20045;DHT22;10183;47.808;9.476;2022-09-30T10:59:06;12.60;99.90
20045;DHT22;10183;47.808;9.476;2022-09-30T11:01:47;12.60;99.90
20045;DHT22;10183;47.808;9.476;2022-09-30T11:04:41;12.70;99.90
20045;DHT22;10183;47.808;9.476;2022-09-30T11:07:38;12.70;99.90
20045;DHT22;10183;47.808;9.476;2022-09-30T11:10:44;12.40;99.90
20045;DHT22;10183;47.808;9.476;2022-09-30T11:13:36;12.40;99.90
20045;DHT22;10183;47.808;9.476;2022-09-30T11:16:13;12.50;99.90
20045;DHT22;10183;47.808;9.476;2022-09-30T11:18:47;12.50;99.90
20045;DHT22;10183;47.808;9.476;2022-09-30T11:21:20;12.50;99.90
20045;DHT22;10183;47.808;9.476;2022-09-30T11:24:04;12.70;99.90
20045;DHT22;10183;47.808;9.476;2022-09-30T11:29:41;13.50;99.90
20045;DHT22;10183;47.808;9.476;2022-09-30T11:35:02;13.80;99.90
20045;DHT22;10183;47.808;9.476;2022-09-30T11:40:48;14.10;99.90
20045;DHT22;10183;47.808;9.476;2022-09-30T11:51:42;14.50;99.90
20045;DHT22;10183;47.808;9.476;2022-09-30T12:02:34;14.70;99.90
20045;DHT22;10183;47.808;9.476;2022-09-30T12:05:09;14.80;99.90
20045;DHT22;10183;47.808;9.476;2022-09-30T12:07:45;14.60;99.90
20045;DHT22;10183;47.808;9.476;2022-09-30T12:12:50;14.20;99.90
20045;DHT22;10183;47.808;9.476;2022-09-30T12:15:22;14.00;99.90
20045;DHT22;10183;47.808;9.476;2022-09-30T12:17:54;14.30;99.90
20045;DHT22;10183;47.808;9.476;2022-09-30T12:20:35;14.90;99.90
20045;DHT22;10183;47.808;9.476;2022-09-30T12:26:00;16.30;99.90
20045;DHT22;10183;47.808;9.476;2022-09-30T12:28:34;16.80;99.90
20045;DHT22;10183;47.808;9.476;2022-09-30T12:34:49;15.90;99.90
20045;DHT22;10183;47.808;9.476;2022-09-30T12:37:51;16.00;99.90
20045;DHT22;10183;47.808;9.476;2022-09-30T12:43:14;17.40;99.90
20045;DHT22;10183;47.808;9.476;2022-09-30T12:46:23;17.10;99.90
20045;DHT22;10183;47.808;9.476;2022-09-30T12:48:58;16.70;99.90
20045;DHT22;10183;47.808;9.476;2022-09-30T12:51:34;16.80;99.90
20045;DHT22;10183;47.808;9.476;2022-09-30T12:56:43;16.20;99.90
20045;DHT22;10183;47.808;9.476;2022-09-30T12:59:12;16.10;99.90
20045;DHT22;10183;47.808;9.476;2022-09-30T13:01:39;15.50;99.90
20045;DHT22;10183;47.808;9.476;2022-09-30T13:04:29;15.10;99.90
20045;DHT22;10183;47.808;9.476;2022-09-30T13:09:33;14.70;99.90
20045;DHT22;10183;47.808;9.476;2022-09-30T13:14:35;14.20;99.90
20045;DHT22;10183;47.808;9.476;2022-09-30T13:19:44;14.70;99.90
20045;DHT22;10183;47.808;9.476;2022-09-30T13:32:39;16.10;99.90
20045;DHT22;10183;47.808;9.476;2022-09-30T13:40:56;16.60;99.90
20045;DHT22;10183;47.808;9.476;2022-09-30T13:51:38;16.40;99.90
20045;DHT22;10183;47.808;9.476;2022-09-30T13:54:10;17.20;99.90
20045;DHT22;10183;47.808;9.476;2022-09-30T13:56:38;17.80;99.90
20045;DHT22;10183;47.808;9.476;2022-09-30T13:59:27;18.10;99.90
20045;DHT22;10183;47.808;9.476;2022-09-30T14:07:39;17.70;99.90
20045;DHT22;10183;47.808;9.476;2022-09-30T14:21:56;18.20;99.90
20045;DHT22;10183;47.808;9.476;2022-09-30T14:24:26;18.20;99.90
20045;DHT22;10183;47.808;9.476;2022-09-30T14:30:13;17.70;99.90
20045;DHT22;10183;47.808;9.476;2022-09-30T14:35:07;17.00;99.90
20045;DHT22;10183;47.808;9.476;2022-09-30T14:37:42;16.60;99.90
20045;DHT22;10183;47.808;9.476;2022-09-30T14:40:16;15.90;99.90
20045;DHT22;10183;47.808;9.476;2022-09-30T14:42:44;15.50;99.90
20045;DHT22;10183;47.808;9.476;2022-09-30T14:45:24;15.30;99.90
20045;DHT22;10183;47.808;9.476;2022-09-30T14:47:54;15.30;99.90
20045;DHT22;10183;47.808;9.476;2022-09-30T14:50:28;15.50;99.90
20045;DHT22;10183;47.808;9.476;2022-09-30T14:52:58;15.50;99.90
20045;DHT22;10183;47.808;9.476;2022-09-30T14:55:33;16.50;99.90
20045;DHT22;10183;47.808;9.476;2022-09-30T15:00:47;18.60;99.90
20045;DHT22;10183;47.808;9.476;2022-09-30T15:03:14;17.70;99.90
20045;DHT22;10183;47.808;9.476;2022-09-30T15:05:41;18.80;99.90
20045;DHT22;10183;47.808;9.476;2022-09-30T15:08:14;21.00;99.90
20045;DHT22;10183;47.808;9.476;2022-09-30T15:10:53;23.40;99.90
20045;DHT22;10183;47.808;9.476;2022-09-30T15:13:29;25.20;93.10
20045;DHT22;10183;47.808;9.476;2022-09-30T15:15:57;25.90;77.60
20045;DHT22;10183;47.808;9.476;2022-09-30T15:18:45;24.90;85.40
20045;DHT22;10183;47.808;9.476;2022-09-30T15:21:13;27.50;74.70
20045;DHT22;10183;47.808;9.476;2022-09-30T15:23:53;29.20;60.50
20045;DHT22;10183;47.808;9.476;2022-09-30T15:26:22;30.50;54.40
20045;DHT22;10183;47.808;9.476;2022-09-30T15:28:49;31.60;50.70
20045;DHT22;10183;47.808;9.476;2022-09-30T15:33:47;31.60;42.80
20045;DHT22;10183;47.808;9.476;2022-09-30T15:36:15;29.30;44.20
20045;DHT22;10183;47.808;9.476;2022-09-30T15:38:48;26.50;49.40
20045;DHT22;10183;47.808;9.476;2022-09-30T15:41:15;23.60;59.10
20045;DHT22;10183;47.808;9.476;2022-09-30T15:46:29;24.10;68.60
20045;DHT22;10183;47.808;9.476;2022-09-30T15:48:58;25.70;59.30
20045;DHT22;10183;47.808;9.476;2022-09-30T15:51:34;23.20;54.10
20045;DHT22;10183;47.808;9.476;2022-09-30T15:54:28;22.10;67.70
20045;DHT22;10183;47.808;9.476;2022-09-30T15:56:58;24.10;68.60
20045;DHT22;10183;47.808;9.476;2022-09-30T15:59:58;25.70;64.40
20045;DHT22;10183;47.808;9.476;2022-09-30T16:02:27;27.10;56.00
20045;DHT22;10183;47.808;9.476;2022-09-30T16:04:53;28.00;52.90
20045;DHT22;10183;47.808;9.476;2022-09-30T16:07:21;28.30;51.10
20045;DHT22;10183;47.808;9.476;2022-09-30T16:09:51;28.50;50.30
20045;DHT22;10183;47.808;9.476;2022-09-30T16:12:23;28.50;50.10
20045;DHT22;10183;47.808;9.476;2022-09-30T16:14:53;28.60;50.40
20045;DHT22;10183;47.808;9.476;2022-09-30T16:17:31;28.30;49.50
20045;DHT22;10183;47.808;9.476;2022-09-30T16:20:09;27.90;50.30
20045;DHT22;10183;47.808;9.476;2022-09-30T16:27:59;26.50;53.90
20045;DHT22;10183;47.808;9.476;2022-09-30T16:30:27;26.00;55.00
20045;DHT22;10183;47.808;9.476;2022-09-30T16:32:56;25.40;56.80
20045;DHT22;10183;47.808;9.476;2022-09-30T16:35:25;24.70;58.30
20045;DHT22;10183;47.808;9.476;2022-09-30T16:38:03;24.10;61.80
20045;DHT22;10183;47.808;9.476;2022-09-30T16:40:31;23.60;65.30
20045;DHT22;10183;47.808;9.476;2022-09-30T16:42:58;23.30;68.20
20045;DHT22;10183;47.808;9.476;2022-09-30T16:45:26;22.70;72.10
20045;DHT22;10183;47.808;9.476;2022-09-30T16:47:54;21.40;80.50
20045;DHT22;10183;47.808;9.476;2022-09-30T16:50:35;19.90;99.90
20045;DHT22;10183;47.808;9.476;2022-09-30T16:53:03;19.60;99.90
20045;DHT22;10183;47.808;9.476;2022-09-30T16:55:29;18.30;99.90
20045;DHT22;10183;47.808;9.476;2022-09-30T16:57:56;16.40;99.90
20045;DHT22;10183;47.808;9.476;2022-09-30T17:00:24;14.40;99.90
20045;DHT22;10183;47.808;9.476;2022-09-30T17:02:51;13.40;99.90
20045;DHT22;10183;47.808;9.476;2022-09-30T17:05:19;12.80;99.90
20045;DHT22;10183;47.808;9.476;2022-09-30T17:07:54;12.10;99.90
20045;DHT22;10183;47.808;9.476;2022-09-30T17:10:26;11.60;99.90
20045;DHT22;10183;47.808;9.476;2022-09-30T17:12:57;11.00;99.90
20045;DHT22;10183;47.808;9.476;2022-09-30T17:15:26;10.40;99.90
20045;DHT22;10183;47.808;9.476;2022-09-30T17:17:53;10.10;99.90
20045;DHT22;10183;47.808;9.476;2022-09-30T17:20:20;9.90;99.90
20045;DHT22;10183;47.808;9.476;2022-09-30T17:22:47;9.90;99.90
20045;DHT22;10183;47.808;9.476;2022-09-30T17:25:14;9.80;99.90
20045;DHT22;10183;47.808;9.476;2022-09-30T17:27:41;9.70;99.90
20045;DHT22;10183;47.808;9.476;2022-09-30T17:30:08;9.60;99.90
20045;DHT22;10183;47.808;9.476;2022-09-30T17:32:35;9.30;99.90
20045;DHT22;10183;47.808;9.476;2022-09-30T17:35:02;9.30;99.90
20045;DHT22;10183;47.808;9.476;2022-09-30T17:37:31;9.20;99.90
20045;DHT22;10183;47.808;9.476;2022-09-30T17:39:57;9.20;99.90
20045;DHT22;10183;47.808;9.476;2022-09-30T17:42:23;9.10;99.90
20045;DHT22;10183;47.808;9.476;2022-09-30T17:45:08;9.00;99.90
20045;DHT22;10183;47.808;9.476;2022-09-30T17:47:34;8.70;99.90
20045;DHT22;10183;47.808;9.476;2022-09-30T17:50:07;8.30;99.90
20045;DHT22;10183;47.808;9.476;2022-09-30T17:52:33;8.10;99.90
20045;DHT22;10183;47.808;9.476;2022-09-30T17:55:00;8.00;99.90
20045;DHT22;10183;47.808;9.476;2022-09-30T17:57:26;7.90;99.90
20045;DHT22;10183;47.808;9.476;2022-09-30T17:59:53;7.90;99.90
20045;DHT22;10183;47.808;9.476;2022-09-30T18:02:19;8.00;99.90
20045;DHT22;10183;47.808;9.476;2022-09-30T18:04:46;8.10;99.90
20045;DHT22;10183;47.808;9.476;2022-09-30T18:07:12;8.10;99.90
20045;DHT22;10183;47.808;9.476;2022-09-30T18:09:39;8.10;99.90
20045;DHT22;10183;47.808;9.476;2022-09-30T18:12:05;8.10;99.90
20045;DHT22;10183;47.808;9.476;2022-09-30T18:14:33;8.10;99.90
20045;DHT22;10183;47.808;9.476;2022-09-30T18:17:04;8.10;99.90
20045;DHT22;10183;47.808;9.476;2022-09-30T18:19:30;8.10;99.90
20045;DHT22;10183;47.808;9.476;2022-09-30T18:21:56;8.10;99.90
20045;DHT22;10183;47.808;9.476;2022-09-30T18:24:24;8.10;99.90
20045;DHT22;10183;47.808;9.476;2022-09-30T18:27:09;8.00;99.90
20045;DHT22;10183;47.808;9.476;2022-09-30T18:29:36;7.90;99.90
20045;DHT22;10183;47.808;9.476;2022-09-30T18:32:06;7.80;99.90
20045;DHT22;10183;47.808;9.476;2022-09-30T18:34:33;7.90;99.90
20045;DHT22;10183;47.808;9.476;2022-09-30T18:37:00;7.90;99.90
20045;DHT22;10183;47.808;9.476;2022-09-30T18:39:29;7.80;99.90
20045;DHT22;10183;47.808;9.476;2022-09-30T18:41:58;7.70;99.90
20045;DHT22;10183;47.808;9.476;2022-09-30T18:44:25;7.70;99.90
20045;DHT22;10183;47.808;9.476;2022-09-30T18:47:00;7.60;99.90
20045;DHT22;10183;47.808;9.476;2022-09-30T18:49:26;7.40;99.90
20045;DHT22;10183;47.808;9.476;2022-09-30T18:51:53;7.10;99.90
20045;DHT22;10183;47.808;9.476;2022-09-30T18:54:20;6.90;99.90
20045;DHT22;10183;47.808;9.476;2022-09-30T18:56:48;6.90;99.90
20045;DHT22;10183;47.808;9.476;2022-09-30T18:59:16;6.80;99.90
20045;DHT22;10183;47.808;9.476;2022-09-30T19:01:44;6.60;99.90
20045;DHT22;10183;47.808;9.476;2022-09-30T19:04:11;6.60;99.90
20045;DHT22;10183;47.808;9.476;2022-09-30T19:06:40;6.50;99.90
20045;DHT22;10183;47.808;9.476;2022-09-30T19:09:07;6.50;99.90
20045;DHT22;10183;47.808;9.476;2022-09-30T19:11:35;6.50;99.90
20045;DHT22;10183;47.808;9.476;2022-09-30T19:14:01;6.50;99.90
20045;DHT22;10183;47.808;9.476;2022-09-30T19:16:29;6.40;99.90
20045;DHT22;10183;47.808;9.476;2022-09-30T19:19:00;6.40;99.90
20045;DHT22;10183;47.808;9.476;2022-09-30T19:21:30;6.40;99.90
20045;DHT22;10183;47.808;9.476;2022-09-30T19:24:00;6.40;99.90
20045;DHT22;10183;47.808;9.476;2022-09-30T19:26:28;6.40;99.90
20045;DHT22;10183;47.808;9.476;2022-09-30T19:28:55;6.40;99.90
20045;DHT22;10183;47.808;9.476;2022-09-30T19:31:22;6.40;99.90
20045;DHT22;10183;47.808;9.476;2022-09-30T19:33:51;6.40;99.90
20045;DHT22;10183;47.808;9.476;2022-09-30T19:36:18;6.50;99.90